Time;durP1;ratioP1;P1;durP2;ratioP2;P2;SDS_P1;SDS_P2;PMS_P1;PMS_P2;Temp;Humidity;BMP_temperature;BMP_pressure;BME280_temperature;BME280_humidity;BME280_pressure;Samples;Min_cycle;Max_cycle;Signal;HPM_P1;HPM_P2
2024/01/18 00:08:43;;;;;;;4.93;2.75;;;;;;;19.32;44.43;93948.16;20798398;28;20118;-75
2024/01/18 00:19:03;;;;;;;4.50;2.58;;;;;;;19.29;44.31;93934.72;20795800;28;20045;-75
2024/01/18 00:29:22;;;;;;;5.80;3.00;;;;;;;19.21;44.17;93931.25;20786496;28;20071;-74
2024/01/18 00:39:42;;;;;;;4.30;2.28;;;;;;;19.22;44.43;93950.91;20775993;28;20509;-76
2024/01/18 00:50:01;;;;;;;3.15;2.05;;;;;;;19.22;44.33;93959.78;20778011;28;20080;-75
2024/01/18 01:00:21;;;;;;;4.60;2.35;;;;;;;19.20;44.25;93969.44;20757190;28;20050;-72
2024/01/18 01:10:40;;;;;;;3.70;2.20;;;;;;;19.12;44.08;93961.34;20782953;28;20053;-72
2024/01/18 01:21:00;;;;;;;3.55;2.25;;;;;;;19.09;44.04;93964.84;20810010;28;20095;-72
2024/01/18 01:31:20;;;;;;;2.55;1.80;;;;;;;19.03;44.06;93969.06;20739914;28;20049;-72
2024/01/18 01:41:39;;;;;;;3.35;2.28;;;;;;;19.02;44.25;93983.72;20763418;28;20049;-72
2024/01/18 01:52:00;;;;;;;3.28;2.40;;;;;;;19.03;44.20;93979.09;20778987;28;20060;-72
2024/01/18 02:02:22;;;;;;;3.58;2.10;;;;;;;19.00;44.28;93982.59;20785865;28;20048;-72
2024/01/18 02:12:42;;;;;;;3.05;1.98;;;;;;;18.97;44.04;93994.91;20768068;28;20084;-72
2024/01/18 02:23:03;;;;;;;2.50;1.70;;;;;;;18.92;43.95;94006.88;20813021;28;20482;-72
2024/01/18 02:33:23;;;;;;;3.33;1.80;;;;;;;18.89;44.16;94012.25;20853433;28;20049;-72
2024/01/18 02:43:43;;;;;;;2.33;1.75;;;;;;;18.87;44.12;94014.59;20778770;28;20453;-72
2024/01/18 02:54:02;;;;;;;1.95;1.75;;;;;;;18.86;44.07;94035.41;20775686;28;20123;-72
2024/01/18 03:04:22;;;;;;;1.92;1.52;;;;;;;18.85;43.86;94027.69;20815284;28;20057;-72
2024/01/18 03:14:42;;;;;;;2.60;1.80;;;;;;;18.81;43.90;94021.53;20755498;28;20525;-72
2024/01/18 03:25:02;;;;;;;2.30;1.65;;;;;;;18.77;43.91;94032.28;20792896;28;20478;-71
2024/01/18 03:35:22;;;;;;;2.80;1.70;;;;;;;18.73;43.75;94043.06;20761180;28;20478;-72
2024/01/18 03:45:41;;;;;;;2.83;1.70;;;;;;;18.72;43.76;94049.63;20803311;28;20053;-72
2024/01/18 03:56:01;;;;;;;2.40;1.77;;;;;;;18.69;43.96;94053.09;20775324;28;20062;-72
2024/01/18 04:06:21;;;;;;;2.38;1.90;;;;;;;18.66;43.79;94058.47;20797305;28;20041;-72
2024/01/18 04:16:41;;;;;;;2.47;1.90;;;;;;;18.63;43.61;94078.13;20798559;28;20462;-72
2024/01/18 04:27:00;;;;;;;2.55;2.10;;;;;;;18.60;43.42;94095.81;20827281;28;20108;-72
2024/01/18 04:37:20;;;;;;;1.92;1.73;;;;;;;18.57;43.65;94099.31;20772637;28;20049;-72
2024/01/18 04:47:41;;;;;;;2.50;1.90;;;;;;;18.53;43.54;94123.56;20795733;28;20046;-72
2024/01/18 04:58:00;;;;;;;2.42;2.10;;;;;;;18.51;43.69;94136.66;20775614;28;20112;-72
2024/01/18 05:08:20;;;;;;;2.30;2.10;;;;;;;18.46;43.68;94145.09;20773786;28;20058;-72
2024/01/18 05:18:39;;;;;;;2.53;1.80;;;;;;;18.54;44.14;94162.06;20752341;28;20449;-72
2024/01/18 05:28:59;;;;;;;4.03;1.90;;;;;;;18.57;44.06;94190.97;20799173;28;20054;-72
2024/01/18 05:39:19;;;;;;;2.75;2.13;;;;;;;18.53;44.27;94207.13;20795099;28;20132;-74
2024/01/18 05:49:38;;;;;;;2.67;1.90;;;;;;;18.58;44.09;94232.94;20758169;28;20385;-74
2024/01/18 05:59:57;;;;;;;3.17;2.20;;;;;;;18.56;43.94;94235.25;20791950;28;20038;-74
2024/01/18 06:10:17;;;;;;;2.08;1.88;;;;;;;18.58;43.79;94241.03;20776523;28;20129;-73
2024/01/18 06:20:37;;;;;;;4.32;2.20;;;;;;;18.63;43.66;94270.34;20811445;28;20145;-74
2024/01/18 06:30:56;;;;;;;2.20;1.95;;;;;;;18.69;43.41;94252.63;20788127;28;20569;-74
2024/01/18 06:41:16;;;;;;;2.45;2.10;;;;;;;18.77;43.07;94273.09;20835625;28;20140;-74
2024/01/18 06:51:36;;;;;;;2.20;2.00;;;;;;;18.92;42.66;94283.97;20760661;28;20133;-74
2024/01/18 07:01:55;;;;;;;2.00;1.80;;;;;;;18.95;42.78;94285.88;20788685;28;20049;-73
2024/01/18 07:12:16;;;;;;;2.63;2.10;;;;;;;19.04;42.38;94282.84;20754726;28;20525;-74
2024/01/18 07:22:35;;;;;;;2.20;2.00;;;;;;;19.07;42.05;94280.16;20773190;28;20140;-74
2024/01/18 07:32:55;;;;;;;2.13;1.90;;;;;;;19.15;42.05;94295.22;20769432;28;20179;-74
2024/01/18 07:43:14;;;;;;;2.30;2.10;;;;;;;19.28;41.86;94317.22;20770021;28;20046;-75
2024/01/18 07:53:34;;;;;;;2.00;1.80;;;;;;;19.32;41.83;94317.97;20770039;28;20058;-74
2024/01/18 08:03:54;;;;;;;1.85;1.70;;;;;;;19.35;41.71;94324.56;20785544;28;20132;-74
2024/01/18 08:14:14;;;;;;;2.50;2.00;;;;;;;19.44;41.57;94351.94;20795863;28;20580;-74
2024/01/18 08:24:34;;;;;;;1.83;1.73;;;;;;;19.46;41.35;94346.94;20763291;28;20192;-74
2024/01/18 08:34:54;;;;;;;1.60;1.50;;;;;;;19.53;41.12;94357.00;20742874;28;20137;-74
2024/01/18 08:45:13;;;;;;;1.70;1.60;;;;;;;19.66;41.22;94331.19;20744862;28;20041;-76
2024/01/18 08:55:33;;;;;;;2.00;1.85;;;;;;;19.79;41.54;94350.50;20775981;28;20053;-75
2024/01/18 09:05:52;;;;;;;2.50;2.30;;;;;;;19.79;39.49;94358.59;20766341;28;20189;-75
2024/01/18 09:16:16;;;;;;;2.22;2.00;;;;;;;19.79;39.70;94342.41;20783039;28;20054;-75
2024/01/18 09:26:36;;;;;;;2.25;2.03;;;;;;;19.95;40.06;94366.34;20766623;28;20053;-76
2024/01/18 09:36:55;;;;;;;2.47;2.00;;;;;;;19.99;40.32;94382.56;20759470;28;20087;-75
2024/01/18 09:47:15;;;;;;;2.00;1.80;;;;;;;20.04;40.22;94379.47;20772691;28;20120;-76
2024/01/18 09:57:35;;;;;;;2.00;1.73;;;;;;;20.10;40.33;94376.00;20733632;28;20598;-75
2024/01/18 10:07:55;;;;;;;2.22;1.80;;;;;;;20.19;40.14;94355.91;20759133;28;20150;-76
2024/01/18 10:18:15;;;;;;;1.95;1.80;;;;;;;20.25;40.15;94338.94;20772883;28;20093;-74
2024/01/18 10:28:34;;;;;;;2.10;1.80;;;;;;;20.33;40.25;94353.97;20785112;28;20255;-73
2024/01/18 10:38:54;;;;;;;2.72;1.58;;;;;;;20.37;40.33;94355.91;20765241;28;20060;-73
2024/01/18 10:49:14;;;;;;;1.85;1.73;;;;;;;20.39;40.42;94357.06;20806090;28;20042;-72
2024/01/18 10:59:34;;;;;;;2.22;1.60;;;;;;;20.44;40.25;94362.06;20750690;28;20069;-73
2024/01/18 11:09:54;;;;;;;1.88;1.67;;;;;;;20.60;39.90;94396.88;20767559;28;20767;-73
2024/01/18 11:20:15;;;;;;;2.25;2.10;;;;;;;20.66;37.06;94413.44;20800635;28;20056;-72
2024/01/18 11:30:35;;;;;;;3.65;2.10;;;;;;;20.62;34.44;94391.84;20751855;28;20050;-72
2024/01/18 11:41:03;;;;;;;2.00;1.75;;;;;;;20.64;35.12;94376.00;20787469;28;20149;-73
2024/01/18 11:51:23;;;;;;;44.90;23.60;;;;;;;20.74;40.20;94367.06;20780747;28;20054;-73
2024/01/18 12:01:42;;;;;;;46.10;25.38;;;;;;;20.88;42.87;94365.50;20768171;28;20053;-73
2024/01/18 12:12:04;;;;;;;40.65;22.90;;;;;;;20.93;43.81;94360.47;20774016;28;20103;-73
2024/01/18 12:22:25;;;;;;;35.83;19.48;;;;;;;20.92;43.67;94348.06;20767064;28;20057;-72
2024/01/18 12:32:48;;;;;;;36.55;17.77;;;;;;;20.89;43.50;94351.56;20759230;28;20095;-73
2024/01/18 12:43:07;;;;;;;5.57;3.92;;;;;;;19.72;28.78;94364.00;20767146;28;20042;-75
2024/01/18 12:53:26;;;;;;;6.78;4.18;;;;;;;20.20;33.68;94373.69;20768517;28;20065;-77
2024/01/18 13:03:46;;;;;;;6.45;3.90;;;;;;;20.44;34.93;94391.03;20774096;28;20057;-77
2024/01/18 13:14:09;;;;;;;8.63;3.60;;;;;;;20.63;35.89;94403.44;20737906;28;20070;-76
2024/01/18 13:24:29;;;;;;;6.00;2.85;;;;;;;20.62;36.20;94416.19;20708173;28;20042;-75
2024/01/18 13:34:49;;;;;;;3.13;2.70;;;;;;;20.64;36.77;94435.50;20701186;28;20113;-77
2024/01/18 13:45:09;;;;;;;6.45;2.70;;;;;;;20.68;37.45;94463.31;20679485;28;20039;-76
2024/01/18 13:55:28;;;;;;;4.30;2.63;;;;;;;20.76;37.68;94482.25;20714499;28;20050;-77
2024/01/18 14:05:48;;;;;;;4.45;2.13;;;;;;;20.82;37.93;94510.47;20752224;28;20042;-75
2024/01/18 14:16:08;;;;;;;3.03;2.08;;;;;;;20.88;38.09;94530.56;20769961;28;20097;-75
2024/01/18 14:26:27;;;;;;;3.05;1.90;;;;;;;20.85;38.34;94539.47;20772736;28;20049;-76
2024/01/18 14:36:47;;;;;;;2.17;1.92;;;;;;;20.88;38.40;94571.16;20762945;28;20064;-76
2024/01/18 14:47:06;;;;;;;1.98;1.73;;;;;;;20.85;38.71;94590.88;20752855;28;20104;-76
2024/01/18 14:57:25;;;;;;;2.85;1.90;;;;;;;20.81;39.13;94625.28;20710483;28;1173987;-76
2024/01/18 15:07:45;;;;;;;1.67;1.58;;;;;;;20.80;38.86;94650.81;20777234;28;20394;-72
2024/01/18 15:18:04;;;;;;;2.45;1.73;;;;;;;20.73;39.07;94682.06;20789990;28;20041;-72
2024/01/18 15:28:25;;;;;;;1.70;1.60;;;;;;;20.70;39.52;94712.63;20778860;28;20065;-73
2024/01/18 15:38:44;;;;;;;1.65;1.50;;;;;;;20.67;39.71;94756.66;20758973;28;20056;-73
2024/01/18 15:49:03;;;;;;;1.63;1.52;;;;;;;20.61;40.25;94752.78;20756203;28;20137;-73
2024/01/18 15:59:23;;;;;;;2.00;1.60;;;;;;;20.59;40.29;94787.56;20750634;28;20046;-73
2024/01/18 16:09:43;;;;;;;1.92;1.38;;;;;;;20.57;40.69;94819.59;20786236;28;20108;-72
2024/01/18 16:20:04;;;;;;;3.03;1.60;;;;;;;20.54;40.11;94856.28;20798811;28;20510;-73
2024/01/18 16:30:23;;;;;;;1.90;1.45;;;;;;;20.52;40.70;94874.84;20752969;28;20049;-73
2024/01/18 16:40:43;;;;;;;1.70;1.45;;;;;;;20.53;40.85;94900.72;20796317;28;20076;-74
2024/01/18 16:51:02;;;;;;;2.20;1.42;;;;;;;20.50;41.08;94933.94;20772389;28;20424;-73
2024/01/18 17:01:22;;;;;;;3.25;1.38;;;;;;;20.48;41.14;94971.41;20786541;28;20049;-73
2024/01/18 17:11:42;;;;;;;2.95;1.20;;;;;;;20.44;41.87;95003.03;20753810;28;20068;-74
2024/01/18 17:22:02;;;;;;;1.50;1.27;;;;;;;20.38;41.92;95028.09;20725611;28;20046;-75
2024/01/18 17:32:21;;;;;;;1.52;1.27;;;;;;;20.35;42.15;95054.75;20711901;28;20050;-74
2024/01/18 17:42:41;;;;;;;1.48;1.23;;;;;;;20.37;42.34;95056.31;20695149;28;20066;-75
2024/01/18 17:53:01;;;;;;;1.20;1.10;;;;;;;20.30;42.70;95106.44;20710433;28;20077;-80
2024/01/18 18:03:21;;;;;;;1.23;1.05;;;;;;;20.25;42.86;95131.13;20742102;28;20046;-78
2024/01/18 18:13:40;;;;;;;2.97;1.08;;;;;;;20.19;42.86;95159.63;20708170;28;20055;-79
2024/01/18 18:24:00;;;;;;;1.10;1.00;;;;;;;20.15;42.98;95169.63;20708073;28;20394;-79
2024/01/18 18:34:20;;;;;;;1.27;1.00;;;;;;;20.11;42.93;95217.44;20667369;28;20438;-74
2024/01/18 18:44:40;;;;;;;2.08;1.25;;;;;;;20.05;43.07;95259.47;20682086;28;20042;-73
2024/01/18 18:54:59;;;;;;;1.95;1.00;;;;;;;20.02;43.11;95304.22;20661346;28;20047;-73
2024/01/18 19:05:21;;;;;;;1.17;1.08;;;;;;;19.97;42.96;95338.88;20727487;28;20049;-73
2024/01/18 19:15:41;;;;;;;0.90;0.90;;;;;;;19.95;43.13;95369.78;20790217;28;20074;-72
2024/01/18 19:26:01;;;;;;;2.17;0.73;;;;;;;19.92;43.10;95386.72;20765150;28;20046;-74
2024/01/18 19:36:20;;;;;;;1.90;0.88;;;;;;;19.94;42.63;95438.47;20797246;28;20061;-72
2024/01/18 19:46:40;;;;;;;3.63;1.65;;;;;;;19.77;38.69;95471.38;20783108;28;20049;-73
2024/01/18 19:57:00;;;;;;;2.08;1.20;;;;;;;19.82;40.46;95495.41;20759983;28;20502;-71
2024/01/18 20:07:19;;;;;;;3.92;1.50;;;;;;;19.75;41.58;95520.34;20734107;28;20678;-72
2024/01/18 20:17:39;;;;;;;6.47;1.45;;;;;;;19.72;42.18;95541.91;20750551;28;20077;-71
2024/01/18 20:27:59;;;;;;;2.97;1.48;;;;;;;19.69;42.60;95586.59;20759806;28;20053;-71
2024/01/18 20:38:19;;;;;;;2.78;1.50;;;;;;;19.67;43.08;95620.50;20741056;28;20055;-71
2024/01/18 20:48:39;;;;;;;2.80;1.50;;;;;;;19.68;43.19;95643.69;20689168;28;20065;-72
2024/01/18 20:58:58;;;;;;;3.33;1.40;;;;;;;19.63;43.44;95660.19;20746036;28;20157;-72
2024/01/18 21:09:17;;;;;;;4.63;1.73;;;;;;;19.56;44.00;95680.50;20739278;28;20053;-71
2024/01/18 21:19:39;;;;;;;2.20;1.38;;;;;;;19.53;43.94;95718.22;20721181;28;20084;-71
2024/01/18 21:29:59;;;;;;;3.08;1.40;;;;;;;19.56;44.28;95729.13;20767768;28;20087;-72
2024/01/18 21:40:19;;;;;;;3.63;1.70;;;;;;;19.51;44.14;95759.09;20746621;28;20046;-72
2024/01/18 21:50:39;;;;;;;3.90;1.60;;;;;;;19.43;44.46;95775.50;20773936;28;20100;-72
2024/01/18 22:00:58;;;;;;;2.90;1.30;;;;;;;19.32;44.49;95800.28;20775111;28;20049;-71
2024/01/18 22:11:18;;;;;;;2.50;1.38;;;;;;;19.27;44.71;95832.19;20772956;28;20045;-72
2024/01/18 22:21:37;;;;;;;2.95;1.50;;;;;;;19.24;44.60;95849.06;20748662;28;20103;-72
2024/01/18 22:31:56;;;;;;;2.08;1.27;;;;;;;19.19;44.50;95881.69;20786065;28;20053;-72
2024/01/18 22:42:16;;;;;;;2.13;1.33;;;;;;;19.14;44.39;95893.53;20798026;28;20053;-72
2024/01/18 22:52:35;;;;;;;1.95;1.27;;;;;;;19.13;44.32;95922.47;20771675;28;20070;-72
2024/01/18 23:02:55;;;;;;;2.28;1.30;;;;;;;19.09;44.43;95948.56;20772407;28;20057;-72
2024/01/18 23:13:15;;;;;;;2.03;1.00;;;;;;;19.06;44.42;95964.66;20820360;28;20137;-74
2024/01/18 23:23:35;;;;;;;1.40;1.00;;;;;;;19.03;44.41;95965.31;20785795;28;20108;-74
2024/01/18 23:33:54;;;;;;;1.98;1.20;;;;;;;18.98;44.28;95962.88;20791882;28;20065;-74
2024/01/18 23:44:14;;;;;;;1.38;1.05;;;;;;;18.94;44.13;95970.88;20770951;28;20069;-74
2024/01/18 23:54:34;;;;;;;1.52;0.98;;;;;;;18.91;44.12;95982.31;20788354;28;20112;-74
